Time;durP1;ratioP1;P1;durP2;ratioP2;P2;SDS_P1;SDS_P2;PMS_P1;PMS_P2;Temp;Humidity;BMP_temperature;BMP_pressure;BME280_temperature;BME280_humidity;BME280_pressure;Samples;Min_cycle;Max_cycle;Signal;HPM_P1;HPM_P2
2022/05/25 00:01:32;;;;;;;32.13;29.73;;;;;;;19.00;93.79;99332.94;5070174;28;20682;-56
2022/05/25 00:04:00;;;;;;;32.70;30.10;;;;;;;18.99;93.66;99323.41;5070139;28;20506;-56
2022/05/25 00:06:28;;;;;;;33.43;30.23;;;;;;;19.10;93.02;99333.59;5070110;28;20274;-55
2022/05/25 00:08:55;;;;;;;31.83;29.17;;;;;;;19.12;93.05;99339.63;5070142;28;20551;-55
2022/05/25 00:11:23;;;;;;;32.27;29.53;;;;;;;19.13;92.95;99343.97;5070233;28;20270;-56
2022/05/25 00:13:50;;;;;;;31.63;29.03;;;;;;;19.03;92.86;99339.84;5070035;28;20207;-56
2022/05/25 00:16:17;;;;;;;32.92;30.40;;;;;;;19.13;92.98;99355.25;5069489;28;20446;-56
2022/05/25 00:21:24;;;;;;;31.43;28.83;;;;;;;19.26;92.09;99353.22;5074211;28;20630;-56
2022/05/25 00:23:52;;;;;;;28.93;26.73;;;;;;;19.22;91.55;99351.59;5074051;28;20191;-56
2022/05/25 00:26:18;;;;;;;30.83;28.33;;;;;;;19.16;91.83;99349.97;5074329;28;20187;-56
2022/05/25 00:28:46;;;;;;;29.23;27.03;;;;;;;19.04;91.67;99352.81;5074181;28;20202;-56
2022/05/25 00:31:14;;;;;;;31.00;28.47;;;;;;;18.80;92.64;99333.34;5074099;28;20215;-56
2022/05/25 00:33:40;;;;;;;32.13;29.10;;;;;;;19.06;92.52;99355.41;5073999;28;20195;-56
2022/05/25 00:36:07;;;;;;;29.08;26.98;;;;;;;19.09;92.20;99358.78;5072631;28;20440;-56
2022/05/25 00:38:34;;;;;;;29.23;26.93;;;;;;;19.18;91.14;99348.19;5074273;28;20198;-56
2022/05/25 00:41:01;;;;;;;27.10;25.13;;;;;;;19.23;90.63;99348.09;5073805;28;20731;-56
2022/05/25 00:43:28;;;;;;;26.80;24.50;;;;;;;19.26;90.28;99350.63;5073957;28;20206;-56
2022/05/25 00:46:00;;;;;;;26.92;24.83;;;;;;;19.25;90.11;99360.22;5073184;28;20445;-56
2022/05/25 00:48:32;;;;;;;26.90;24.80;;;;;;;19.38;89.42;99353.88;5073778;28;20206;-57
2022/05/25 00:53:44;;;;;;;26.67;24.43;;;;;;;19.21;89.70;99352.47;5071926;28;20191;-57
2022/05/25 00:56:16;;;;;;;26.70;24.60;;;;;;;19.36;89.20;99357.38;5073678;28;20198;-57
2022/05/25 00:58:48;;;;;;;26.40;23.87;;;;;;;19.43;88.76;99351.16;5073434;28;20282;-57
2022/05/25 01:01:17;;;;;;;25.43;23.30;;;;;;;19.43;88.70;99357.25;5073277;28;20199;-57
2022/05/25 01:03:44;;;;;;;26.63;24.63;;;;;;;19.45;88.49;99365.00;5073549;28;20257;-55
2022/05/25 01:06:22;;;;;;;25.07;22.73;;;;;;;19.49;88.40;99368.41;5073719;28;20195;-56
2022/05/25 01:08:59;;;;;;;25.83;23.73;;;;;;;19.49;88.33;99361.47;5073201;28;20735;-57
2022/05/25 01:11:40;;;;;;;25.20;23.20;;;;;;;19.41;88.58;99364.25;5073381;28;20215;-56
2022/05/25 01:14:22;;;;;;;26.30;24.10;;;;;;;19.19;89.28;99360.34;5073364;28;20245;-56
2022/05/25 01:17:03;;;;;;;26.23;24.02;;;;;;;19.39;89.23;99381.63;5072184;28;20426;-55
2022/05/25 01:20:02;;;;;;;23.73;21.70;;;;;;;19.47;88.05;99375.41;5073005;28;20199;-56
2022/05/25 01:23:06;;;;;;;23.33;21.63;;;;;;;19.44;87.94;99378.94;5073279;28;20191;-56
2022/05/25 01:26:03;;;;;;;24.67;22.57;;;;;;;19.42;88.02;99378.97;5073261;28;20184;-56
2022/05/25 01:28:44;;;;;;;23.37;21.47;;;;;;;19.49;87.76;99384.91;5073097;28;20704;-56
2022/05/25 01:31:19;;;;;;;22.53;20.70;;;;;;;19.41;87.85;99392.03;5071621;28;20246;-56
2022/05/25 01:33:53;;;;;;;22.87;21.07;;;;;;;19.27;88.42;99396.63;5073179;28;20191;-61
2022/05/25 01:36:25;;;;;;;26.25;24.05;;;;;;;19.33;89.11;99393.91;5072353;28;20449;-62
2022/05/25 01:38:56;;;;;;;24.23;22.23;;;;;;;19.40;88.72;99391.19;5072889;28;20590;-61
2022/05/25 01:41:30;;;;;;;28.67;26.33;;;;;;;19.23;89.46;99397.56;5072918;28;20199;-61
2022/05/25 01:44:01;;;;;;;28.17;25.87;;;;;;;19.20;90.17;99397.66;5073355;28;20559;-61
2022/05/25 01:46:32;;;;;;;29.63;27.42;;;;;;;18.99;90.62;99380.69;5072378;28;20448;-61
2022/05/25 01:49:04;;;;;;;27.70;25.63;;;;;;;18.84;90.54;99378.41;5073111;28;20191;-61
2022/05/25 01:51:36;;;;;;;26.60;24.33;;;;;;;19.06;90.77;99394.47;5072845;28;20678;-61
2022/05/25 01:54:07;;;;;;;23.60;21.80;;;;;;;19.16;90.23;99389.03;5072769;28;20551;-61
2022/05/25 01:56:38;;;;;;;23.83;21.93;;;;;;;19.08;89.21;99403.97;5072694;28;20187;-61
2022/05/25 01:59:08;;;;;;;22.40;20.50;;;;;;;19.06;89.34;99404.88;5072884;28;20690;-61
2022/05/25 02:01:36;;;;;;;22.80;20.77;;;;;;;19.06;88.95;99408.34;5072745;28;20175;-63
2022/05/25 02:04:21;;;;;;;21.33;19.73;;;;;;;19.06;88.78;99408.34;5072512;28;20689;-61
2022/05/25 02:07:05;;;;;;;22.17;20.27;;;;;;;19.02;88.54;99417.09;5071534;28;20437;-61
2022/05/25 02:10:04;;;;;;;19.57;17.97;;;;;;;19.08;87.25;99414.38;5072708;28;20192;-62
2022/05/25 02:12:45;;;;;;;17.50;15.73;;;;;;;18.96;86.68;99422.41;5072420;28;20623;-63
2022/05/25 02:15:20;;;;;;;16.47;14.97;;;;;;;18.91;85.88;99428.59;5072252;28;20687;-61
2022/05/25 02:17:56;;;;;;;13.90;12.80;;;;;;;18.88;85.02;99426.03;5071181;28;20441;-61
2022/05/25 02:20:33;;;;;;;11.33;10.23;;;;;;;18.81;84.36;99423.59;5072423;28;20197;-61
2022/05/25 02:23:05;;;;;;;12.13;10.20;;;;;;;18.55;84.85;99424.91;5071048;28;20657;-61
2022/05/25 02:25:37;;;;;;;13.37;10.47;;;;;;;18.46;85.62;99438.06;5072266;28;20601;-61
2022/05/25 02:28:10;;;;;;;11.87;10.73;;;;;;;18.43;85.90;99433.72;5072136;28;20182;-62
2022/05/25 02:30:42;;;;;;;13.60;12.40;;;;;;;18.38;85.92;99432.09;5072106;28;20551;-62
2022/05/25 02:33:13;;;;;;;12.37;11.07;;;;;;;18.31;86.04;99430.47;5071711;28;20211;-61
2022/05/25 02:35:43;;;;;;;13.40;12.07;;;;;;;18.37;86.36;99436.47;5051438;28;20227;-61
2022/05/25 02:38:11;;;;;;;15.10;12.77;;;;;;;18.37;86.54;99440.78;5051988;28;20200;-61
2022/05/25 02:40:40;;;;;;;14.03;12.73;;;;;;;18.39;86.10;99439.00;5051762;28;20661;-61
2022/05/25 02:43:09;;;;;;;13.43;12.17;;;;;;;18.49;85.98;99440.59;5051531;28;20188;-61
2022/05/25 02:45:36;;;;;;;18.60;14.13;;;;;;;18.48;85.86;99442.38;5051861;28;20199;-61
2022/05/25 02:48:05;;;;;;;18.95;16.23;;;;;;;18.59;85.88;99445.66;5050674;28;20857;-63
2022/05/25 02:50:33;;;;;;;19.93;17.93;;;;;;;18.50;85.60;99451.00;5051582;28;20199;-61
2022/05/25 02:53:00;;;;;;;20.67;18.50;;;;;;;18.48;85.87;99455.38;5051508;28;20653;-61
2022/05/25 02:55:26;;;;;;;22.30;20.07;;;;;;;18.37;86.30;99462.47;5051825;28;20254;-61
2022/05/25 02:57:54;;;;;;;22.87;20.43;;;;;;;18.35;87.06;99465.97;5051799;28;20254;-63
2022/05/25 03:00:21;;;;;;;19.10;17.30;;;;;;;18.22;87.60;99457.50;5051648;28;20682;-63
2022/05/25 03:02:48;;;;;;;19.83;17.73;;;;;;;18.17;88.21;99465.38;5051614;28;20590;-61
2022/05/25 03:05:15;;;;;;;19.93;17.37;;;;;;;18.16;88.40;99468.84;5051292;28;20598;-61
2022/05/25 03:07:43;;;;;;;19.55;17.67;;;;;;;18.32;88.41;99463.41;5050786;28;20435;-63
2022/05/25 03:10:10;;;;;;;17.23;14.97;;;;;;;18.36;87.70;99475.47;5051178;28;20180;-63
2022/05/25 03:12:37;;;;;;;17.10;15.43;;;;;;;18.44;87.59;99471.00;5050878;28;20694;-61
2022/05/25 03:15:05;;;;;;;18.33;16.33;;;;;;;18.45;87.42;99473.63;5050874;28;20200;-63
2022/05/25 03:17:32;;;;;;;19.02;17.13;;;;;;;18.45;87.50;99475.34;5050434;28;20478;-63
2022/05/25 03:19:59;;;;;;;15.83;14.23;;;;;;;18.49;87.06;99479.63;5051057;28;20196;-61
2022/05/25 03:22:26;;;;;;;15.17;13.60;;;;;;;18.55;86.82;99476.94;5051050;28;20187;-63
2022/05/25 03:24:54;;;;;;;21.93;13.30;;;;;;;18.48;86.42;99475.34;5051168;28;20196;-61
2022/05/25 03:27:21;;;;;;;15.60;12.07;;;;;;;18.51;86.04;99480.50;5051056;28;20196;-62
2022/05/25 03:29:48;;;;;;;13.23;10.43;;;;;;;18.56;86.16;99487.34;5050839;28;20640;-62
2022/05/25 03:32:15;;;;;;;11.90;10.23;;;;;;;18.49;85.73;99495.25;5050715;28;20223;-61
2022/05/25 03:34:42;;;;;;;12.20;10.33;;;;;;;18.40;85.94;99501.44;5050754;28;20218;-61
2022/05/25 03:37:08;;;;;;;11.93;9.83;;;;;;;18.43;86.13;99496.16;5051115;28;20215;-61
2022/05/25 03:39:35;;;;;;;13.93;10.00;;;;;;;18.44;86.02;99497.91;5050403;28;20238;-61
2022/05/25 03:42:07;;;;;;;16.30;10.77;;;;;;;18.27;85.87;99468.69;5050925;28;20649;-61
2022/05/25 03:44:34;;;;;;;13.33;10.53;;;;;;;18.46;86.10;99508.31;5050815;28;20567;-62
2022/05/25 03:47:01;;;;;;;20.45;11.43;;;;;;;18.40;86.43;99505.78;5050547;28;20956;-61
2022/05/25 03:49:28;;;;;;;15.33;11.40;;;;;;;18.30;86.77;99515.44;5050755;28;20728;-61
2022/05/25 03:51:56;;;;;;;22.97;11.17;;;;;;;18.29;86.81;99514.59;5050344;28;20753;-62
2022/05/25 03:54:23;;;;;;;13.80;10.67;;;;;;;18.22;87.16;99510.38;5049702;28;20234;-62
2022/05/25 03:56:50;;;;;;;17.30;10.60;;;;;;;18.27;87.27;99510.28;5050251;28;20574;-62
2022/05/25 03:59:18;;;;;;;17.57;11.40;;;;;;;18.37;87.01;99524.91;5050317;28;20196;-62
2022/05/25 04:01:45;;;;;;;15.40;11.23;;;;;;;18.33;86.60;99523.22;5050370;28;20195;-62
2022/05/25 04:04:12;;;;;;;15.67;10.47;;;;;;;18.27;86.94;99524.16;5050255;28;20666;-61
2022/05/25 04:06:38;;;;;;;17.13;11.38;;;;;;;18.11;87.66;99522.66;5050528;28;20095;-61
2022/05/25 04:09:05;;;;;;;17.23;11.50;;;;;;;18.19;87.82;99535.56;5050225;28;20195;-62
2022/05/25 04:11:32;;;;;;;16.87;10.80;;;;;;;18.29;87.62;99543.19;5050393;28;20200;-63
2022/05/25 04:14:00;;;;;;;17.03;10.30;;;;;;;18.28;87.38;99545.84;5050251;28;20227;-62
2022/05/25 04:16:28;;;;;;;16.60;10.47;;;;;;;18.21;87.06;99541.63;5050159;28;20730;-61
2022/05/25 04:18:55;;;;;;;17.70;11.25;;;;;;;18.16;87.50;99546.84;5049384;28;20447;-63
2022/05/25 04:21:22;;;;;;;13.87;10.07;;;;;;;17.97;87.70;99539.31;5050070;28;20223;-62
2022/05/25 04:23:49;;;;;;;18.07;10.97;;;;;;;17.99;88.28;99541.00;5050518;28;20196;-62
2022/05/25 04:26:16;;;;;;;15.77;11.23;;;;;;;18.00;87.98;99534.94;5050380;28;20689;-62
2022/05/25 04:28:43;;;;;;;15.40;10.80;;;;;;;18.03;87.93;99539.25;5050211;28;20184;-62
2022/05/25 04:31:10;;;;;;;13.83;10.53;;;;;;;17.87;88.33;99542.91;5050069;28;20264;-62
2022/05/25 04:33:40;;;;;;;15.77;10.53;;;;;;;17.99;88.55;99543.63;5050459;28;20334;-63
2022/05/25 04:36:07;;;;;;;16.10;10.83;;;;;;;18.10;87.55;99540.91;5050188;28;21064;-62
2022/05/25 04:38:34;;;;;;;16.15;12.63;;;;;;;18.26;86.84;99540.66;5049718;28;20461;-62
2022/05/25 04:41:02;;;;;;;14.80;11.40;;;;;;;18.31;85.98;99543.19;5050030;28;20231;-62
2022/05/25 04:43:30;;;;;;;15.00;13.27;;;;;;;18.30;86.03;99549.28;5050399;28;20242;-62
2022/05/25 04:45:59;;;;;;;14.27;12.77;;;;;;;18.13;86.06;99549.50;5050072;28;20196;-62
2022/05/25 04:48:26;;;;;;;17.08;13.85;;;;;;;18.18;86.24;99546.84;5049671;28;20435;-63
2022/05/25 04:50:57;;;;;;;14.20;12.07;;;;;;;18.38;85.40;99551.75;5049969;28;20188;-62
2022/05/25 04:53:25;;;;;;;13.57;10.97;;;;;;;18.42;84.29;99553.44;5049533;28;20219;-61
2022/05/25 04:58:39;;;;;;;12.37;11.17;;;;;;;18.44;83.67;99555.13;5049654;28;20183;-62
2022/05/25 05:01:08;;;;;;;20.70;10.80;;;;;;;18.49;83.71;99561.16;5049159;28;20203;-63
2022/05/25 05:03:36;;;;;;;16.13;12.10;;;;;;;18.55;83.46;99563.69;5049953;28;20247;-63
2022/05/25 05:06:06;;;;;;;13.37;11.97;;;;;;;18.49;83.26;99575.91;5051733;28;20583;-62
2022/05/25 05:08:34;;;;;;;13.63;11.95;;;;;;;18.41;83.51;99577.72;5052772;28;20449;-62
2022/05/25 05:11:06;;;;;;;13.47;12.10;;;;;;;18.56;83.16;99574.97;5053481;28;20287;-62
2022/05/25 05:13:33;;;;;;;13.57;11.90;;;;;;;18.65;82.80;99575.66;5052739;28;20614;-64
2022/05/25 05:16:05;;;;;;;15.10;12.90;;;;;;;18.75;82.75;99584.22;5067070;28;20199;-63
2022/05/25 05:18:32;;;;;;;15.55;13.13;;;;;;;18.67;82.58;99586.06;5074857;28;20820;-63
2022/05/25 05:20:59;;;;;;;14.77;12.33;;;;;;;18.53;82.60;99582.81;5072606;28;20643;-63
2022/05/25 05:23:27;;;;;;;12.57;11.27;;;;;;;18.50;82.56;99588.06;5070280;28;20187;-63
2022/05/25 05:25:54;;;;;;;13.13;11.20;;;;;;;18.52;82.73;99588.88;5073077;28;20183;-63
2022/05/25 05:28:25;;;;;;;13.83;10.93;;;;;;;18.46;82.98;99583.75;5073063;28;20201;-62
2022/05/25 05:30:54;;;;;;;14.00;11.63;;;;;;;18.48;83.26;99576.81;5072440;28;20195;-63
2022/05/25 05:33:22;;;;;;;18.90;11.37;;;;;;;18.57;83.06;99580.13;5072175;28;20215;-63
2022/05/25 05:35:52;;;;;;;11.63;10.43;;;;;;;18.63;83.05;99577.44;5071622;28;20190;-62
2022/05/25 05:38:21;;;;;;;17.97;12.80;;;;;;;18.75;82.62;99587.69;5071196;28;20441;-62
2022/05/25 05:40:53;;;;;;;13.10;10.73;;;;;;;18.91;81.67;99595.22;5071727;28;20457;-64
2022/05/25 05:43:20;;;;;;;12.83;11.53;;;;;;;19.00;80.89;99595.09;5068796;28;20195;-63
2022/05/25 05:45:47;;;;;;;14.73;11.60;;;;;;;18.84;80.88;99595.31;5072283;28;20612;-63
2022/05/25 05:48:19;;;;;;;12.30;11.00;;;;;;;18.87;81.24;99594.41;5069736;28;20939;-63
2022/05/25 05:50:49;;;;;;;17.13;11.27;;;;;;;18.64;81.57;99601.72;5072450;28;20286;-62
2022/05/25 05:53:16;;;;;;;15.27;11.13;;;;;;;18.52;81.95;99588.88;5072256;28;20204;-63
2022/05/25 05:55:46;;;;;;;15.77;10.90;;;;;;;18.65;82.44;99593.06;5072382;28;20191;-62
2022/05/25 05:58:15;;;;;;;17.47;12.77;;;;;;;18.66;82.01;99593.00;5071027;28;20196;-62
2022/05/25 06:00:42;;;;;;;18.53;12.17;;;;;;;18.81;81.75;99585.00;5053048;28;20744;-62
2022/05/25 06:03:09;;;;;;;18.27;12.90;;;;;;;18.90;81.30;99577.91;5058364;28;20203;-63
2022/05/25 06:05:36;;;;;;;15.17;11.53;;;;;;;18.91;81.60;99588.28;5072048;28;20291;-63
2022/05/25 06:08:08;;;;;;;19.60;13.45;;;;;;;19.07;81.62;99589.75;5072113;28;20920;-63
2022/05/25 06:10:35;;;;;;;16.00;12.23;;;;;;;19.15;81.21;99595.69;5071648;28;20249;-63
2022/05/25 06:13:02;;;;;;;20.97;13.33;;;;;;;19.28;81.20;99599.81;5072188;28;20219;-62
2022/05/25 06:20:59;;;;;;;21.80;14.17;;;;;;;19.51;80.69;99594.22;5051980;28;20195;-63
2022/05/25 06:23:26;;;;;;;22.93;14.53;;;;;;;19.59;80.63;99607.13;5051835;28;20203;-63
2022/05/25 06:25:52;;;;;;;22.03;15.33;;;;;;;19.69;80.32;99612.16;5051748;28;20663;-61
2022/05/25 06:28:19;;;;;;;25.73;15.80;;;;;;;19.70;80.64;99608.66;5051291;28;20196;-61
2022/05/25 06:30:47;;;;;;;24.40;15.57;;;;;;;19.73;80.44;99605.13;5051389;28;20196;-62
2022/05/25 06:33:14;;;;;;;28.03;16.97;;;;;;;19.82;80.47;99602.34;5051366;28;20702;-62
2022/05/25 06:35:41;;;;;;;27.48;19.05;;;;;;;19.60;81.22;99614.06;5051152;28;20427;-62
2022/05/25 06:38:08;;;;;;;28.90;18.63;;;;;;;19.87;80.73;99606.56;5051105;28;20619;-62
2022/05/25 06:40:35;;;;;;;31.33;19.50;;;;;;;19.98;80.08;99611.56;5063942;28;20497;-62
2022/05/25 06:43:02;;;;;;;31.07;18.67;;;;;;;20.02;79.77;99624.53;5070925;28;20195;-62
2022/05/25 06:45:28;;;;;;;27.47;18.27;;;;;;;19.87;80.37;99617.00;5071433;28;20195;-65
2022/05/25 06:47:57;;;;;;;26.67;17.13;;;;;;;20.02;80.17;99623.69;5071252;28;20249;-62
2022/05/25 06:50:25;;;;;;;32.30;19.07;;;;;;;20.14;79.98;99622.56;5071006;28;20611;-62
2022/05/25 06:52:52;;;;;;;29.50;17.23;;;;;;;20.25;79.19;99626.69;5071485;28;20215;-62
2022/05/25 06:55:19;;;;;;;32.45;19.65;;;;;;;20.12;79.41;99621.72;5070852;28;20801;-62
2022/05/25 06:57:46;;;;;;;31.97;18.23;;;;;;;20.05;80.35;99615.81;5070827;28;20728;-62
2022/05/25 07:00:13;;;;;;;29.70;18.47;;;;;;;20.12;80.27;99629.56;5070909;28;20666;-63
2022/05/25 07:02:40;;;;;;;35.57;19.70;;;;;;;20.23;79.88;99631.06;5071136;28;20222;-62
2022/05/25 07:05:09;;;;;;;35.60;19.57;;;;;;;20.52;79.26;99625.25;5070998;28;20544;-63
2022/05/25 07:07:38;;;;;;;32.40;18.70;;;;;;;20.54;78.79;99626.09;5065474;28;20600;-63
2022/05/25 07:10:06;;;;;;;32.20;19.13;;;;;;;20.48;78.71;99624.47;5069387;28;20817;-64
2022/05/25 07:12:32;;;;;;;30.60;19.77;;;;;;;20.49;78.93;99620.97;5067661;28;20196;-63
2022/05/25 07:14:59;;;;;;;33.33;19.43;;;;;;;20.76;78.28;99629.94;5070533;28;20222;-63
2022/05/25 07:17:26;;;;;;;31.80;19.07;;;;;;;20.79;78.46;99631.63;5070251;28;20195;-63
2022/05/25 07:19:53;;;;;;;29.43;18.93;;;;;;;20.97;78.00;99632.06;5067758;28;20191;-63
2022/05/25 07:22:21;;;;;;;31.93;21.87;;;;;;;21.06;77.24;99629.22;5070421;28;20183;-64
2022/05/25 07:24:48;;;;;;;32.23;20.37;;;;;;;21.10;76.81;99633.50;5070236;28;20274;-63
2022/05/25 07:27:15;;;;;;;36.20;21.53;;;;;;;21.25;76.68;99634.03;5070040;28;20188;-63
2022/05/25 07:29:42;;;;;;;29.73;21.63;;;;;;;21.26;76.61;99631.38;5070340;28;20195;-63
2022/05/25 07:32:11;;;;;;;33.50;20.73;;;;;;;21.36;76.26;99639.84;5070388;28;20191;-63
2022/05/25 07:34:42;;;;;;;27.47;18.93;;;;;;;21.28;75.96;99644.41;5070290;28;20221;-63
2022/05/25 07:37:12;;;;;;;28.10;20.97;;;;;;;21.32;76.09;99632.97;5059543;28;20291;-64
2022/05/25 07:39:46;;;;;;;32.23;19.27;;;;;;;21.46;75.39;99629.13;5070257;28;20238;-63
2022/05/25 07:42:14;;;;;;;31.73;20.40;;;;;;;21.67;75.23;99638.19;5069197;28;20442;-62
2022/05/25 07:44:45;;;;;;;29.90;17.07;;;;;;;21.88;74.09;99649.84;5069743;28;20195;-63
2022/05/25 07:47:13;;;;;;;22.90;17.17;;;;;;;21.88;74.03;99658.56;5069849;28;20680;-57
2022/05/25 07:49:40;;;;;;;23.47;16.27;;;;;;;21.78;74.26;99647.44;5070215;28;20222;-57
2022/05/25 07:52:07;;;;;;;25.20;18.45;;;;;;;22.04;73.46;99643.28;5069327;28;21150;-57
2022/05/25 07:54:34;;;;;;;21.73;16.90;;;;;;;22.13;72.71;99656.13;5069795;28;20219;-57
2022/05/25 07:57:03;;;;;;;21.00;16.00;;;;;;;22.15;72.07;99656.94;5069856;28;21173;-57
2022/05/25 07:59:30;;;;;;;20.90;14.80;;;;;;;22.29;72.01;99645.19;5069333;28;20199;-57
2022/05/25 08:07:31;;;;;;;23.13;17.10;;;;;;;22.50;70.44;99614.00;5069688;28;20297;-57
2022/05/25 08:10:04;;;;;;;19.33;15.33;;;;;;;22.69;70.31;99639.63;5069941;28;20998;-57
2022/05/25 08:12:32;;;;;;;27.07;17.77;;;;;;;22.82;70.69;99643.63;5069544;28;20192;-57
2022/05/25 08:15:00;;;;;;;21.93;15.67;;;;;;;22.76;70.27;99656.91;5069354;28;20215;-60
2022/05/25 08:17:27;;;;;;;24.97;16.07;;;;;;;22.82;69.85;99648.00;5069518;28;20612;-56
2022/05/25 08:19:54;;;;;;;25.00;17.90;;;;;;;22.96;69.76;99655.44;5069440;28;20199;-56
2022/05/25 08:22:21;;;;;;;21.77;16.75;;;;;;;23.03;69.83;99664.78;5069068;28;20816;-57
2022/05/25 08:24:48;;;;;;;17.57;14.33;;;;;;;23.05;69.60;99673.47;5069370;28;20191;-56
2022/05/25 08:27:14;;;;;;;22.70;15.27;;;;;;;23.16;68.65;99668.75;5069169;28;20681;-57
2022/05/25 08:29:42;;;;;;;24.93;14.70;;;;;;;23.08;69.20;99669.00;5069113;28;20199;-57
2022/05/25 08:32:09;;;;;;;18.17;16.23;;;;;;;23.15;68.69;99677.53;5069545;28;20221;-58
2022/05/25 08:34:37;;;;;;;25.33;15.37;;;;;;;22.97;69.61;99673.72;5068215;28;20219;-57
2022/05/25 08:37:04;;;;;;;22.33;17.30;;;;;;;23.05;68.89;99657.72;5068852;28;20199;-57
2022/05/25 08:39:31;;;;;;;20.43;14.20;;;;;;;23.31;67.99;99679.63;5069086;28;20299;-57
2022/05/25 08:42:01;;;;;;;24.42;17.25;;;;;;;23.48;67.72;99679.97;5072724;28;20957;-57
2022/05/25 08:44:29;;;;;;;20.53;14.50;;;;;;;23.73;67.28;99680.00;5073201;28;20191;-58
2022/05/25 08:47:00;;;;;;;17.53;13.83;;;;;;;23.52;66.74;99675.44;5072629;28;20195;-56
2022/05/25 08:49:31;;;;;;;16.30;14.60;;;;;;;23.53;66.40;99679.78;5073207;28;20192;-57
2022/05/25 08:52:01;;;;;;;22.00;15.50;;;;;;;23.32;67.12;99662.13;5072980;28;20282;-57
2022/05/25 08:54:29;;;;;;;19.03;14.93;;;;;;;23.82;65.64;99684.91;5072999;28;20216;-57
2022/05/25 08:57:00;;;;;;;14.33;12.83;;;;;;;23.64;65.78;99684.69;5072973;28;20196;-57
2022/05/25 08:59:32;;;;;;;18.73;16.70;;;;;;;23.95;65.19;99680.94;5073420;28;20179;-58
2022/05/25 09:02:06;;;;;;;15.73;12.83;;;;;;;23.93;64.72;99677.50;5073072;28;20203;-57
2022/05/25 09:04:37;;;;;;;16.20;14.47;;;;;;;24.05;64.00;99681.47;5073222;28;20191;-57
2022/05/25 09:07:12;;;;;;;18.13;14.40;;;;;;;24.27;63.68;99671.09;5072559;28;20203;-57
2022/05/25 09:09:41;;;;;;;14.63;12.70;;;;;;;24.43;62.83;99670.47;5072488;28;20208;-57
2022/05/25 09:12:11;;;;;;;16.10;13.40;;;;;;;24.39;62.78;99682.00;5071932;28;20209;-57
2022/05/25 09:14:44;;;;;;;18.15;14.40;;;;;;;24.54;62.42;99670.06;5071258;28;20528;-63
2022/05/25 09:17:18;;;;;;;15.80;13.97;;;;;;;24.82;61.84;99665.50;5072414;28;20663;-63
2022/05/25 09:19:47;;;;;;;16.77;13.97;;;;;;;24.93;61.47;99667.72;5072325;28;20192;-63
2022/05/25 09:22:20;;;;;;;16.77;14.50;;;;;;;25.15;60.54;99663.31;5072526;28;20199;-63
2022/05/25 09:24:48;;;;;;;18.42;14.73;;;;;;;25.31;60.04;99661.78;5072026;28;20483;-63
2022/05/25 09:27:17;;;;;;;15.90;14.13;;;;;;;25.20;60.09;99667.47;5072703;28;20196;-58
2022/05/25 09:29:44;;;;;;;16.37;14.67;;;;;;;25.09;60.16;99668.81;5072004;28;20206;-58
2022/05/25 09:32:32;;;;;;;17.97;14.90;;;;;;;25.20;60.27;99669.25;5072240;28;20199;-57
2022/05/25 09:35:04;;;;;;;15.97;14.27;;;;;;;24.95;60.91;99672.00;5072344;28;20289;-57
2022/05/25 09:37:37;;;;;;;20.67;16.00;;;;;;;25.22;60.27;99673.53;5072444;28;20191;-56
2022/05/25 09:40:07;;;;;;;20.03;18.00;;;;;;;25.15;60.37;99676.47;5072167;28;20227;-56
2022/05/25 09:42:37;;;;;;;21.20;16.27;;;;;;;24.85;61.21;99661.91;5072169;28;20385;-57
2022/05/25 09:45:09;;;;;;;20.45;17.10;;;;;;;24.95;61.00;99657.97;5071715;28;20465;-57
2022/05/25 09:47:42;;;;;;;19.70;17.43;;;;;;;25.19;60.06;99664.88;5072530;28;20199;-57
2022/05/25 09:50:15;;;;;;;23.13;19.23;;;;;;;25.45;59.34;99662.06;5071128;28;20282;-57
2022/05/25 09:52:47;;;;;;;23.53;19.13;;;;;;;25.68;58.72;99671.66;5070663;28;20195;-56
2022/05/25 09:55:19;;;;;;;21.10;17.07;;;;;;;25.36;59.58;99666.84;5072001;28;20297;-56
2022/05/25 09:57:55;;;;;;;19.77;16.55;;;;;;;25.18;59.75;99664.06;5072217;28;20509;-56
2022/05/25 10:00:24;;;;;;;20.30;17.70;;;;;;;24.89;60.61;99660.84;5071606;28;20222;-57
2022/05/25 10:03:00;;;;;;;21.30;17.57;;;;;;;24.83;61.03;99656.69;5071738;28;20184;-56
2022/05/25 10:05:30;;;;;;;22.90;20.17;;;;;;;24.80;61.47;99662.09;5071714;28;20779;-56
2022/05/25 10:08:02;;;;;;;23.90;19.60;;;;;;;24.57;61.93;99648.94;5071641;28;20662;-56
2022/05/25 10:10:33;;;;;;;32.77;25.17;;;;;;;24.89;61.66;99648.56;5071428;28;20188;-57
2022/05/25 10:13:03;;;;;;;32.07;24.97;;;;;;;25.27;60.14;99654.94;5071181;28;20739;-56
2022/05/25 10:15:33;;;;;;;29.03;23.00;;;;;;;25.09;60.06;99637.25;5071076;28;20216;-56
2022/05/25 10:18:01;;;;;;;30.17;24.67;;;;;;;25.39;59.61;99643.88;5071142;28;20685;-56
2022/05/25 10:20:30;;;;;;;27.47;22.80;;;;;;;25.44;59.05;99648.94;5071384;28;20195;-55
2022/05/25 10:23:04;;;;;;;24.47;21.77;;;;;;;25.62;58.98;99648.22;5071258;28;20192;-55
2022/05/25 10:25:36;;;;;;;26.07;22.30;;;;;;;25.57;59.39;99658.94;5071456;28;20198;-55
2022/05/25 10:28:09;;;;;;;27.50;24.48;;;;;;;25.68;58.78;99653.25;5070160;28;20924;-56
2022/05/25 10:39:23;;;;;;;26.13;22.63;;;;;;;25.72;57.63;99639.00;5070465;28;20521;-58
2022/05/25 10:42:02;;;;;;;27.03;21.83;;;;;;;25.73;58.14;99632.84;5071258;28;20527;-57
2022/05/25 10:44:35;;;;;;;30.73;22.43;;;;;;;25.43;58.91;99634.09;5050896;28;20196;-63
2022/05/25 10:47:02;;;;;;;31.67;23.57;;;;;;;25.51;58.79;99629.41;5051024;28;20193;-63
2022/05/25 10:49:37;;;;;;;35.63;26.53;;;;;;;25.71;58.81;99627.63;5051225;28;20188;-63
2022/05/25 10:52:08;;;;;;;31.47;26.33;;;;;;;25.65;58.53;99627.03;5050927;28;20195;-63
2022/05/25 10:54:47;;;;;;;30.03;26.13;;;;;;;25.74;58.58;99626.63;5050943;28;20219;-63
2022/05/25 10:57:56;;;;;;;35.90;32.08;;;;;;;26.04;57.99;99627.91;5056375;28;20450;-63
2022/05/25 11:00:36;;;;;;;33.33;26.00;;;;;;;26.21;56.25;99620.16;5063764;28;20183;-63
2022/05/25 11:03:20;;;;;;;32.10;27.37;;;;;;;26.61;56.17;99631.50;5059495;28;20279;-63
2022/05/25 11:05:56;;;;;;;27.17;24.15;;;;;;;26.71;55.05;99623.09;5067093;28;20198;-63
2022/05/25 11:08:39;;;;;;;28.40;23.98;;;;;;;26.39;55.43;99636.91;5066479;28;20469;-63
2022/05/25 11:11:16;;;;;;;33.30;25.25;;;;;;;26.12;56.27;99633.69;5067721;28;20192;-62
2022/05/25 11:14:06;;;;;;;31.08;25.60;;;;;;;25.98;56.12;99620.31;5070222;28;20900;-63
2022/05/25 11:16:44;;;;;;;33.13;25.02;;;;;;;25.75;57.67;99626.56;5066714;28;20188;-64
2022/05/25 11:19:35;;;;;;;30.40;25.90;;;;;;;25.80;57.54;99627.22;5069381;28;20187;-62
2022/05/25 11:22:22;;;;;;;34.40;27.73;;;;;;;26.06;56.86;99625.22;5069115;28;20520;-56
2022/05/25 11:25:03;;;;;;;29.47;25.53;;;;;;;25.93;57.56;99613.53;5050096;28;20195;-56
2022/05/25 11:27:48;;;;;;;34.08;30.30;;;;;;;26.00;58.02;99612.31;5048896;28;20458;-56
2022/05/25 11:30:19;;;;;;;29.73;26.55;;;;;;;25.63;57.77;99607.81;5050008;28;20254;-56
2022/05/25 11:33:01;;;;;;;27.98;24.98;;;;;;;25.29;58.75;99616.25;5049766;28;20208;-56
2022/05/25 11:35:42;;;;;;;30.48;24.70;;;;;;;25.13;59.48;99604.66;5049663;28;20219;-56
2022/05/25 11:38:23;;;;;;;33.33;29.57;;;;;;;25.32;59.58;99600.34;5049888;28;20717;-62
2022/05/25 11:41:01;;;;;;;33.10;28.57;;;;;;;25.45;59.12;99592.78;5058401;28;20231;-63
2022/05/25 11:43:54;;;;;;;31.87;27.30;;;;;;;25.85;58.53;99586.69;5067367;28;20306;-63
2022/05/25 11:46:33;;;;;;;35.13;31.38;;;;;;;26.21;57.03;99590.31;5066012;28;20482;-63
2022/05/25 11:49:24;;;;;;;30.55;27.10;;;;;;;26.14;57.23;99583.63;5067246;28;20195;-62
2022/05/25 11:52:00;;;;;;;28.97;24.93;;;;;;;25.56;58.12;99593.22;5035400;28;20196;-63
2022/05/25 11:54:44;;;;;;;32.53;26.45;;;;;;;25.52;58.99;99603.00;5066353;28;20231;-62
2022/05/25 11:57:20;;;;;;;32.60;23.80;;;;;;;25.65;58.05;99608.63;5068478;28;20286;-61
2022/05/25 12:00:09;;;;;;;32.83;26.40;;;;;;;25.60;58.59;99608.81;5069419;28;20301;-62
2022/05/25 12:02:56;;;;;;;38.00;32.25;;;;;;;25.68;59.18;99593.53;5054342;28;20510;-62